Time;durP1;ratioP1;P1;durP2;ratioP2;P2;SDS_P1;SDS_P2;PMS_P1;PMS_P2;Temp;Humidity;BMP_temperature;BMP_pressure;BME280_temperature;BME280_humidity;BME280_pressure;Samples;Min_cycle;Max_cycle;Signal;HPM_P1;HPM_P2
2022/06/27 00:02:19;;;;;;;6.07;5.53;;;23.30;76.30;;;;;;6244909;22;20019;-92
2022/06/27 00:04:45;;;;;;;6.00;5.50;;;23.30;76.50;;;;;;6244373;23;20043;-92
2022/06/27 00:07:11;;;;;;;6.32;5.72;;;23.30;76.80;;;;;;6244597;23;20128;-91
2022/06/27 00:09:38;;;;;;;5.53;4.97;;;23.20;77.10;;;;;;6243609;22;20083;-92
2022/06/27 00:12:05;;;;;;;6.82;6.15;;;23.10;77.20;;;;;;6243559;23;20004;-92
2022/06/27 00:14:30;;;;;;;6.45;5.85;;;23.10;77.60;;;;;;6244363;22;20016;-92
2022/06/27 00:16:56;;;;;;;6.55;5.95;;;23.00;77.60;;;;;;6241938;23;20008;-93
2022/06/27 00:19:22;;;;;;;6.75;6.13;;;23.00;77.80;;;;;;6242082;23;20066;-85
2022/06/27 00:21:48;;;;;;;7.22;6.53;;;23.00;77.90;;;;;;6236870;22;20381;-85
2022/06/27 00:24:14;;;;;;;7.60;6.45;;;23.00;78.40;;;;;;6249140;23;20004;-88
2022/06/27 00:26:39;;;;;;;10.82;6.63;;;22.90;78.50;;;;;;6240194;23;20008;-89
2022/06/27 00:29:05;;;;;;;7.95;7.15;;;22.90;78.80;;;;;;6239472;23;20004;-88
2022/06/27 00:31:31;;;;;;;6.75;6.07;;;22.90;78.90;;;;;;6240036;23;20004;-88
2022/06/27 00:33:57;;;;;;;6.80;6.20;;;22.90;79.00;;;;;;6265908;22;20000;-89
2022/06/27 00:36:23;;;;;;;7.10;6.50;;;22.90;79.20;;;;;;6242150;22;20020;-92
2022/06/27 00:38:49;;;;;;;7.13;6.43;;;22.90;79.30;;;;;;6243185;23;20604;-92
2022/06/27 00:41:19;;;;;;;7.63;6.80;;;22.90;79.30;;;;;;6243247;23;20098;-92
2022/06/27 00:43:46;;;;;;;7.72;7.00;;;22.90;79.40;;;;;;6242512;23;20099;-92
2022/06/27 00:46:12;;;;;;;7.40;6.70;;;22.90;79.40;;;;;;6243897;23;20001;-92
2022/06/27 00:48:38;;;;;;;7.78;7.07;;;22.90;79.50;;;;;;6217479;23;20032;-92
2022/06/27 00:51:05;;;;;;;7.78;6.57;;;22.90;79.50;;;;;;6242709;23;20032;-92
2022/06/27 00:53:33;;;;;;;8.65;6.72;;;22.90;79.60;;;;;;6241975;23;20020;-91
2022/06/27 00:55:59;;;;;;;9.05;8.10;;;22.80;79.80;;;;;;6244123;22;20004;-91
2022/06/27 00:58:25;;;;;;;7.47;6.78;;;22.80;79.80;;;;;;6242545;23;20016;-92
2022/06/27 01:00:51;;;;;;;7.68;6.82;;;22.80;79.80;;;;;;6242272;23;20374;-92
2022/06/27 01:03:18;;;;;;;7.57;6.88;;;22.80;79.90;;;;;;6242672;23;20012;-92
2022/06/27 01:05:51;;;;;;;8.13;7.43;;;22.80;79.90;;;;;;6243732;22;20050;-92
2022/06/27 01:08:23;;;;;;;7.88;7.18;;;22.80;79.90;;;;;;6242823;23;20004;-91
2022/06/27 01:10:49;;;;;;;7.60;6.90;;;22.70;79.90;;;;;;6241889;23;20004;-92
2022/06/27 01:13:15;;;;;;;8.38;7.38;;;22.70;79.90;;;;;;6216775;23;20397;-92
2022/06/27 01:15:43;;;;;;;7.90;7.10;;;22.70;80.00;;;;;;6242153;23;20004;-91
2022/06/27 01:18:10;;;;;;;7.90;7.15;;;22.70;80.20;;;;;;6242799;23;20011;-91
2022/06/27 01:20:36;;;;;;;8.30;7.50;;;22.60;80.40;;;;;;6243612;23;20007;-91
2022/06/27 01:23:03;;;;;;;8.65;7.75;;;22.60;80.50;;;;;;6244683;23;20012;-89
2022/06/27 01:25:31;;;;;;;8.02;7.22;;;22.60;80.50;;;;;;6240698;23;20008;-88
2022/06/27 01:27:58;;;;;;;8.15;7.35;;;22.50;80.50;;;;;;6240737;23;20015;-88
2022/06/27 01:30:24;;;;;;;8.43;7.63;;;22.50;80.70;;;;;;6238486;23;20628;-84
2022/06/27 01:32:52;;;;;;;9.25;8.35;;;22.40;80.90;;;;;;6236311;23;20000;-85
2022/06/27 01:35:18;;;;;;;10.30;7.57;;;22.40;81.20;;;;;;6211866;23;20062;-85
2022/06/27 01:37:44;;;;;;;9.10;7.78;;;22.40;81.10;;;;;;6236544;23;20008;-85
2022/06/27 01:40:10;;;;;;;8.38;7.57;;;22.40;81.20;;;;;;6211597;23;20827;-85
2022/06/27 01:42:36;;;;;;;9.85;7.65;;;22.40;81.30;;;;;;6218760;23;20004;-89
2022/06/27 01:45:04;;;;;;;8.65;7.85;;;22.40;81.20;;;;;;6243525;23;20135;-91
2022/06/27 01:47:31;;;;;;;9.52;8.30;;;22.40;81.40;;;;;;6243898;23;20011;-91
2022/06/27 01:50:03;;;;;;;8.80;7.78;;;22.40;81.60;;;;;;6243965;23;20007;-90
2022/06/27 01:52:34;;;;;;;8.73;7.88;;;22.30;81.60;;;;;;6243945;23;20027;-91
2022/06/27 01:55:02;;;;;;;8.85;7.95;;;22.30;81.80;;;;;;6243883;23;20008;-90
2022/06/27 01:57:35;;;;;;;7.57;6.88;;;22.30;82.00;;;;;;6244085;23;20008;-91
2022/06/27 02:00:04;;;;;;;7.80;6.90;;;22.30;81.60;;;;;;6243664;23;20012;-91
2022/06/27 02:02:42;;;;;;;9.27;7.00;;;22.30;81.50;;;;;;6244476;23;20036;-90
2022/06/27 02:05:09;;;;;;;7.40;6.70;;;22.20;81.30;;;;;;6243742;23;20454;-90
2022/06/27 02:07:38;;;;;;;7.68;6.97;;;22.20;81.50;;;;;;6218497;23;20014;-91
2022/06/27 02:10:08;;;;;;;7.38;6.68;;;22.10;81.90;;;;;;6243402;23;20015;-89
2022/06/27 02:12:34;;;;;;;10.15;7.93;;;22.10;82.30;;;;;;6239133;23;20031;-91
2022/06/27 02:15:00;;;;;;;8.18;7.38;;;22.10;82.60;;;;;;6239037;23;20062;-90
2022/06/27 02:17:36;;;;;;;8.65;7.80;;;22.10;82.60;;;;;;6215395;23;20066;-90
2022/06/27 02:20:06;;;;;;;8.45;7.57;;;22.00;82.90;;;;;;6241041;23;20008;-90
2022/06/27 02:22:32;;;;;;;9.02;8.15;;;22.00;83.20;;;;;;6218468;23;20016;-92
2022/06/27 02:24:58;;;;;;;8.73;7.93;;;22.00;83.10;;;;;;6245470;23;20035;-92
2022/06/27 02:27:25;;;;;;;8.57;7.68;;;22.00;82.90;;;;;;6243597;23;20095;-91
2022/06/27 02:29:51;;;;;;;8.18;7.38;;;21.90;82.90;;;;;;6218666;23;20008;-91
2022/06/27 02:32:17;;;;;;;8.20;7.45;;;21.90;83.10;;;;;;6242760;23;20048;-92
2022/06/27 02:34:43;;;;;;;8.45;7.65;;;21.90;83.10;;;;;;6243182;23;20015;-92
2022/06/27 02:37:10;;;;;;;8.35;7.65;;;21.80;83.20;;;;;;6218127;23;20440;-92
2022/06/27 02:39:40;;;;;;;9.85;8.07;;;21.80;83.50;;;;;;6244067;23;20019;-93
2022/06/27 02:42:08;;;;;;;8.32;7.53;;;21.80;83.80;;;;;;6243694;23;20070;-92
2022/06/27 02:44:34;;;;;;;8.93;8.00;;;21.70;84.00;;;;;;6245339;22;20047;-91
2022/06/27 02:47:01;;;;;;;8.98;8.07;;;21.70;84.10;;;;;;6243086;23;20356;-92
2022/06/27 02:49:27;;;;;;;8.73;7.90;;;21.70;84.30;;;;;;6243998;23;20518;-92
2022/06/27 02:52:12;;;;;;;8.05;7.35;;;21.70;84.30;;;;;;6243889;23;20012;-92
2022/06/27 02:55:09;;;;;;;8.57;7.78;;;21.70;84.40;;;;;;6243858;23;20715;-91
2022/06/27 02:57:58;;;;;;;9.15;8.30;;;21.70;84.50;;;;;;6219490;23;20027;-92
2022/06/27 03:00:27;;;;;;;9.93;8.65;;;21.70;84.70;;;;;;6243794;23;20014;-91
2022/06/27 03:02:54;;;;;;;10.00;9.02;;;21.70;84.80;;;;;;6243733;23;20012;-92
2022/06/27 03:05:30;;;;;;;9.98;8.98;;;21.70;84.70;;;;;;6243432;23;20089;-92
2022/06/27 03:07:56;;;;;;;9.93;8.85;;;21.60;84.80;;;;;;6244018;23;20016;-92
2022/06/27 03:10:23;;;;;;;10.40;9.30;;;21.70;85.00;;;;;;6240447;23;20456;-85
2022/06/27 03:12:49;;;;;;;10.05;9.05;;;21.70;85.10;;;;;;6236245;23;20012;-85
2022/06/27 03:15:15;;;;;;;10.63;9.63;;;21.70;85.20;;;;;;6236505;23;20020;-85
2022/06/27 03:17:44;;;;;;;9.73;8.73;;;21.60;85.30;;;;;;6236077;23;20155;-85
2022/06/27 03:20:29;;;;;;;;;;;21.60;85.40;;;;;;6221481;23;20015;-85
2022/06/27 03:23:08;;;;;;;9.85;8.85;;;21.70;85.40;;;;;;6235739;23;19903;-85
2022/06/27 03:25:42;;;;;;;9.77;8.88;;;21.70;85.40;;;;;;6237058;23;20129;-90
2022/06/27 03:28:09;;;;;;;10.35;9.27;;;21.70;85.20;;;;;;6217910;23;20004;-91
2022/06/27 03:30:35;;;;;;;9.57;8.68;;;21.70;85.20;;;;;;6243490;23;20023;-91
2022/06/27 03:33:01;;;;;;;9.98;8.55;;;21.70;85.30;;;;;;6243669;23;20016;-91
2022/06/27 03:35:32;;;;;;;9.35;8.45;;;21.70;85.20;;;;;;6243227;23;20032;-91
2022/06/27 03:38:00;;;;;;;10.05;8.60;;;21.80;85.30;;;;;;6243366;23;20012;-91
2022/06/27 03:40:27;;;;;;;9.48;8.57;;;21.80;85.20;;;;;;6243079;23;20008;-91
2022/06/27 03:42:54;;;;;;;9.93;8.38;;;21.90;85.10;;;;;;6242506;23;20142;-90
2022/06/27 03:45:20;;;;;;;8.98;8.07;;;21.90;85.60;;;;;;6242393;23;20008;-90
2022/06/27 03:47:52;;;;;;;10.23;9.23;;;21.90;84.90;;;;;;6217615;23;20004;-89
2022/06/27 03:50:31;;;;;;;9.70;8.35;;;21.90;84.90;;;;;;6254979;22;20018;-91
2022/06/27 03:52:57;;;;;;;9.75;8.70;;;21.90;85.10;;;;;;6242920;23;20011;-89
2022/06/27 03:55:24;;;;;;;9.95;8.95;;;21.80;85.10;;;;;;6239235;23;20065;-85
2022/06/27 03:57:54;;;;;;;10.05;9.10;;;21.80;85.20;;;;;;6210075;23;20123;-85
2022/06/27 04:00:31;;;;;;;9.77;8.88;;;21.90;85.20;;;;;;6210790;23;20096;-86
2022/06/27 04:02:59;;;;;;;9.95;9.02;;;21.90;85.20;;;;;;6235361;23;20011;-86
2022/06/27 04:05:38;;;;;;;10.05;9.15;;;22.00;85.10;;;;;;6235737;23;20012;-88
2022/06/27 04:08:05;;;;;;;11.48;9.80;;;22.00;85.00;;;;;;6239414;23;20510;-88
2022/06/27 04:10:35;;;;;;;9.65;8.75;;;22.10;85.00;;;;;;6239481;23;20091;-87
2022/06/27 04:13:01;;;;;;;10.25;9.18;;;22.10;85.00;;;;;;6239451;23;20079;-87
2022/06/27 04:15:59;;;;;;;10.25;9.25;;;22.10;85.00;;;;;;6199559;23;20008;-90
2022/06/27 04:18:44;;;;;;;10.70;9.63;;;22.10;84.60;;;;;;6241265;23;20054;-88
2022/06/27 04:21:28;;;;;;;10.40;9.40;;;22.10;84.20;;;;;;6241590;23;20065;-88
2022/06/27 04:24:03;;;;;;;10.43;9.43;;;22.20;84.10;;;;;;6239809;23;20015;-87
2022/06/27 04:26:36;;;;;;;10.23;9.30;;;22.20;84.20;;;;;;6242920;23;20066;-90
2022/06/27 04:29:02;;;;;;;9.88;8.98;;;22.30;84.30;;;;;;6240484;23;20020;-89
2022/06/27 04:31:28;;;;;;;10.23;9.27;;;22.30;84.00;;;;;;6239736;23;20034;-88
2022/06/27 04:33:54;;;;;;;10.60;9.45;;;22.40;84.20;;;;;;6235428;23;20036;-88
2022/06/27 04:36:21;;;;;;;10.30;9.30;;;22.40;84.30;;;;;;6210603;23;20008;-88
2022/06/27 04:38:47;;;;;;;9.70;8.80;;;22.40;84.30;;;;;;6235739;23;20012;-89
2022/06/27 04:41:39;;;;;;;9.88;8.98;;;22.50;84.20;;;;;;6241323;22;20014;-87
2022/06/27 04:44:05;;;;;;;10.05;8.98;;;22.50;84.20;;;;;;6212772;23;20515;-88
2022/06/27 04:46:31;;;;;;;11.10;9.73;;;22.50;84.20;;;;;;6239487;23;20099;-88
2022/06/27 04:49:03;;;;;;;10.38;9.48;;;22.60;84.20;;;;;;6250064;23;20012;-88
2022/06/27 04:51:30;;;;;;;10.20;9.30;;;22.60;84.20;;;;;;6238435;23;20095;-89
2022/06/27 04:53:57;;;;;;;10.27;9.38;;;22.70;84.20;;;;;;6237757;23;20433;-88
2022/06/27 04:56:23;;;;;;;10.20;9.27;;;22.70;84.10;;;;;;6240075;23;20061;-89
2022/06/27 04:58:49;;;;;;;10.25;9.35;;;22.80;84.00;;;;;;6240066;23;20623;-88
2022/06/27 05:01:18;;;;;;;10.52;9.43;;;22.80;84.00;;;;;;6240353;23;20356;-88
2022/06/27 05:03:52;;;;;;;9.35;8.52;;;22.80;83.90;;;;;;6240279;23;20008;-87
2022/06/27 05:06:23;;;;;;;9.77;8.88;;;22.90;83.80;;;;;;6241029;23;20378;-88
2022/06/27 05:08:49;;;;;;;9.88;8.93;;;23.00;83.90;;;;;;6240800;23;20004;-88
2022/06/27 05:11:15;;;;;;;9.75;8.93;;;23.00;83.90;;;;;;6240559;23;20632;-89
2022/06/27 05:13:42;;;;;;;9.75;8.70;;;23.00;83.50;;;;;;6240541;23;20039;-89
2022/06/27 05:16:18;;;;;;;9.85;8.68;;;23.10;83.00;;;;;;6241638;23;20015;-89
2022/06/27 05:18:44;;;;;;;9.68;8.68;;;23.30;82.40;;;;;;6240625;23;20008;-89
2022/06/27 05:21:11;;;;;;;9.15;8.27;;;23.30;82.20;;;;;;6241374;23;20300;-88
2022/06/27 05:23:38;;;;;;;9.25;8.45;;;23.40;81.80;;;;;;6243105;22;20004;-89
2022/06/27 05:26:05;;;;;;;9.40;8.50;;;23.50;81.20;;;;;;6241382;23;20034;-88
2022/06/27 05:28:32;;;;;;;8.65;7.85;;;23.70;80.80;;;;;;6240823;23;20085;-89
2022/06/27 05:30:58;;;;;;;9.27;8.38;;;23.80;80.20;;;;;;6241415;23;20523;-88
2022/06/27 05:33:24;;;;;;;8.35;7.65;;;23.90;79.80;;;;;;6241824;23;20000;-89
2022/06/27 05:35:51;;;;;;;9.48;8.60;;;24.00;79.90;;;;;;6241369;23;20004;-89
2022/06/27 05:38:18;;;;;;;8.18;7.47;;;24.10;79.30;;;;;;6215996;23;20008;-89
2022/06/27 05:40:45;;;;;;;8.55;7.53;;;24.20;78.10;;;;;;6240999;23;20039;-89
2022/06/27 05:43:15;;;;;;;8.52;7.75;;;24.30;77.80;;;;;;6216184;23;20015;-89
2022/06/27 05:45:42;;;;;;;8.30;7.57;;;24.40;77.50;;;;;;6241944;23;20016;-90
2022/06/27 05:48:26;;;;;;;9.15;8.27;;;24.40;77.10;;;;;;6253661;22;20004;-90
2022/06/27 05:51:22;;;;;;;8.82;7.93;;;24.60;76.40;;;;;;6241949;22;20012;-89
2022/06/27 05:53:50;;;;;;;7.63;6.93;;;24.60;76.40;;;;;;6216817;23;20342;-90
2022/06/27 05:56:17;;;;;;;9.70;7.95;;;24.70;76.10;;;;;;6266396;22;20087;-90
2022/06/27 05:58:43;;;;;;;8.50;7.60;;;24.80;74.40;;;;;;6243188;22;20008;-89
2022/06/27 06:01:10;;;;;;;9.07;8.18;;;24.90;74.60;;;;;;6241987;23;20032;-89
2022/06/27 06:03:37;;;;;;;9.10;7.20;;;25.00;74.20;;;;;;6241601;23;20008;-89
2022/06/27 06:06:04;;;;;;;8.60;7.80;;;25.10;74.00;;;;;;6240657;23;20012;-89
2022/06/27 06:08:32;;;;;;;7.95;7.25;;;25.20;73.50;;;;;;6240266;23;20011;-88
2022/06/27 06:11:00;;;;;;;8.70;7.80;;;25.30;73.60;;;;;;6241479;23;20313;-88
2022/06/27 06:13:28;;;;;;;8.77;7.97;;;25.40;73.10;;;;;;6216512;23;20012;-91
2022/06/27 06:15:57;;;;;;;8.23;7.53;;;25.60;72.60;;;;;;6240711;23;20491;-92
2022/06/27 06:18:23;;;;;;;9.50;8.52;;;25.60;71.90;;;;;;6243989;23;20083;-92
2022/06/27 06:20:50;;;;;;;9.10;8.20;;;25.80;72.50;;;;;;6244245;23;20054;-92
2022/06/27 06:23:16;;;;;;;9.95;8.10;;;25.90;71.70;;;;;;6244356;23;20016;-92
2022/06/27 06:25:43;;;;;;;7.97;7.28;;;26.00;71.20;;;;;;6244421;23;20031;-92
2022/06/27 06:28:10;;;;;;;9.20;7.40;;;26.00;70.80;;;;;;6246676;22;20000;-91
2022/06/27 06:30:36;;;;;;;7.20;6.60;;;26.20;70.10;;;;;;6243992;23;20107;-93
2022/06/27 06:33:06;;;;;;;8.60;7.68;;;26.20;69.50;;;;;;6218177;23;20012;-91
2022/06/27 06:35:37;;;;;;;8.15;7.47;;;26.30;69.50;;;;;;6243689;23;20007;-93
2022/06/27 06:38:04;;;;;;;8.48;7.65;;;26.40;69.20;;;;;;6243521;23;20008;-91
2022/06/27 06:40:30;;;;;;;7.72;6.95;;;26.50;69.00;;;;;;6241987;23;20004;-88
2022/06/27 06:42:59;;;;;;;9.60;7.28;;;26.60;69.10;;;;;;6242202;23;20038;-89
2022/06/27 06:45:40;;;;;;;7.60;6.78;;;26.70;68.70;;;;;;6242286;23;20015;-88
2022/06/27 06:48:30;;;;;;;7.30;6.70;;;26.80;68.30;;;;;;6243630;22;20040;-88
2022/06/27 06:50:56;;;;;;;7.60;6.70;;;27.00;67.90;;;;;;6238377;23;20038;-90
2022/06/27 06:53:22;;;;;;;7.97;6.88;;;27.10;67.30;;;;;;6239431;23;20035;-91
2022/06/27 06:55:48;;;;;;;7.38;6.68;;;27.20;67.30;;;;;;6237829;23;20713;-89
2022/06/27 06:58:14;;;;;;;10.75;8.00;;;27.40;66.30;;;;;;6238781;23;20015;-90
2022/06/27 07:00:40;;;;;;;7.00;6.40;;;27.50;66.30;;;;;;6243165;23;20051;-90
2022/06/27 07:03:07;;;;;;;7.18;6.15;;;27.60;65.20;;;;;;6242269;23;20110;-91
2022/06/27 07:05:34;;;;;;;7.75;6.00;;;27.60;64.60;;;;;;6244436;22;20042;-91
2022/06/27 07:08:01;;;;;;;6.93;6.32;;;27.70;64.70;;;;;;6217267;23;20004;-90
2022/06/27 07:10:28;;;;;;;6.78;6.22;;;27.70;64.40;;;;;;6243775;22;20004;-89
2022/06/27 07:12:54;;;;;;;8.55;6.63;;;27.80;65.20;;;;;;6243102;22;20015;-91
2022/06/27 07:15:21;;;;;;;6.75;6.15;;;27.80;64.60;;;;;;6244003;22;20007;-90
2022/06/27 07:17:49;;;;;;;7.10;6.40;;;27.90;64.20;;;;;;6239741;22;20448;-86
2022/06/27 07:20:20;;;;;;;6.75;5.70;;;28.00;64.10;;;;;;6235571;23;20016;-86
2022/06/27 07:22:50;;;;;;;7.15;5.93;;;28.10;64.60;;;;;;6242234;22;20016;-88
2022/06/27 07:25:17;;;;;;;7.50;5.95;;;28.30;63.60;;;;;;6239133;22;20012;-88
2022/06/27 07:27:44;;;;;;;6.07;5.47;;;28.40;63.10;;;;;;6241306;22;20551;-89
2022/06/27 07:30:11;;;;;;;6.40;5.80;;;28.50;62.60;;;;;;6238964;22;20031;-88
2022/06/27 07:32:42;;;;;;;7.72;5.82;;;28.60;62.20;;;;;;6240608;22;20004;-88
2022/06/27 07:35:11;;;;;;;7.03;6.00;;;28.70;62.00;;;;;;6241779;22;20701;-90
2022/06/27 07:37:51;;;;;;;8.20;6.90;;;28.80;60.60;;;;;;6241327;22;20107;-88
2022/06/27 07:40:22;;;;;;;6.30;5.70;;;28.90;61.20;;;;;;6238796;22;20103;-87
2022/06/27 07:42:50;;;;;;;6.35;5.75;;;29.10;60.40;;;;;;6238223;22;20008;-88
2022/06/27 07:45:18;;;;;;;6.00;5.47;;;29.30;60.10;;;;;;6240151;22;20345;-88
2022/06/27 07:47:48;;;;;;;6.47;5.40;;;29.40;60.30;;;;;;6238828;22;20341;-88
2022/06/27 07:50:36;;;;;;;5.43;4.97;;;29.50;58.90;;;;;;6238036;23;20012;-89
2022/06/27 07:53:17;;;;;;;6.05;5.15;;;29.60;58.80;;;;;;6238544;23;20072;-89
2022/06/27 07:55:46;;;;;;;6.38;4.80;;;29.70;59.20;;;;;;6238087;23;20077;-89
2022/06/27 07:58:16;;;;;;;5.70;5.05;;;29.80;58.80;;;;;;6238693;22;20008;-87
2022/06/27 08:00:48;;;;;;;5.40;4.90;;;29.90;58.50;;;;;;6239548;22;20023;-89
2022/06/27 08:06:00;;;;;;;;;;;30.10;56.20;;;;;;6240853;23;20517;-89
2022/06/27 08:08:28;;;;;;;4.88;4.30;;;30.10;57.20;;;;;;6238514;22;19903;-89
2022/06/27 08:10:54;;;;;;;5.18;4.32;;;30.10;55.60;;;;;;6238023;23;20077;-88
2022/06/27 08:13:21;;;;;;;8.45;4.38;;;30.10;54.90;;;;;;6237333;23;20116;-89
2022/06/27 08:15:48;;;;;;;7.95;3.70;;;30.10;55.40;;;;;;6240922;23;20012;-89
2022/06/27 08:18:15;;;;;;;7.32;3.97;;;30.10;55.60;;;;;;6240765;22;20031;-88
2022/06/27 08:20:42;;;;;;;6.03;4.25;;;30.30;55.50;;;;;;6240230;22;20047;-89
2022/06/27 08:23:09;;;;;;;4.05;3.75;;;30.40;54.40;;;;;;6212050;23;20099;-90
2022/06/27 08:25:35;;;;;;;4.40;3.65;;;30.40;53.90;;;;;;6242041;22;20011;-90
2022/06/27 08:28:01;;;;;;;4.10;3.70;;;30.50;54.20;;;;;;6242791;23;20004;-92
2022/06/27 08:30:28;;;;;;;4.78;3.50;;;30.70;53.50;;;;;;6241328;23;20054;-89
2022/06/27 08:32:56;;;;;;;3.65;3.30;;;30.80;53.20;;;;;;6241274;23;20004;-91
2022/06/27 08:35:25;;;;;;;3.75;3.47;;;31.00;53.60;;;;;;6242626;22;20008;-91
2022/06/27 08:37:52;;;;;;;4.00;3.70;;;31.10;52.50;;;;;;6243235;22;20016;-91
2022/06/27 08:40:22;;;;;;;4.68;3.70;;;31.20;52.70;;;;;;6243313;22;20019;-91
2022/06/27 08:42:48;;;;;;;3.63;3.33;;;31.30;52.30;;;;;;6243652;22;20004;-90
2022/06/27 08:45:16;;;;;;;4.47;3.42;;;31.30;52.40;;;;;;6241969;23;20042;-91
2022/06/27 08:47:46;;;;;;;3.78;3.30;;;31.40;52.20;;;;;;6243953;22;19996;-92
2022/06/27 08:50:14;;;;;;;5.38;3.25;;;31.40;50.80;;;;;;6243087;22;20004;-90
2022/06/27 08:52:45;;;;;;;3.05;2.85;;;31.30;51.40;;;;;;6217694;23;20012;-88
2022/06/27 08:55:13;;;;;;;2.83;2.45;;;31.40;51.10;;;;;;6243658;23;20016;-91
2022/06/27 08:57:41;;;;;;;6.00;5.43;;;31.40;50.40;;;;;;6246676;23;20008;-89
2022/06/27 09:00:14;;;;;;;3.97;2.92;;;31.40;50.10;;;;;;6243784;23;20004;-89
2022/06/27 09:02:44;;;;;;;3.00;2.80;;;31.50;50.60;;;;;;6241866;23;20012;-90
2022/06/27 09:05:23;;;;;;;2.97;2.67;;;31.70;51.00;;;;;;6241070;23;20012;-88
2022/06/27 09:07:52;;;;;;;3.40;2.90;;;31.90;50.30;;;;;;6241260;22;20016;-88
2022/06/27 09:10:26;;;;;;;2.72;2.38;;;32.00;49.90;;;;;;6237414;23;20078;-88
2022/06/27 09:13:04;;;;;;;4.70;2.90;;;32.00;49.00;;;;;;6239356;22;20081;-90
2022/06/27 09:15:39;;;;;;;3.15;2.60;;;32.00;49.00;;;;;;6240167;22;20448;-88
2022/06/27 09:18:08;;;;;;;2.50;2.30;;;32.20;49.20;;;;;;6212766;23;20035;-90
2022/06/27 09:20:51;;;;;;;6.72;2.30;;;32.40;49.30;;;;;;6239897;22;20008;-89
2022/06/27 09:23:41;;;;;;;3.30;2.75;;;32.40;48.60;;;;;;6240979;22;20436;-90
2022/06/27 09:26:19;;;;;;;4.60;2.50;;;32.40;49.10;;;;;;6262777;22;20016;-87
2022/06/27 09:29:00;;;;;;;6.40;2.80;;;32.30;48.50;;;;;;6237855;23;20008;-91
2022/06/27 09:31:25;;;;;;;2.90;2.40;;;32.20;48.70;;;;;;6238362;23;20011;-86
2022/06/27 09:34:09;;;;;;;8.20;2.72;;;32.00;48.80;;;;;;6238327;23;20046;-89
2022/06/27 09:36:39;;;;;;;5.20;2.50;;;31.80;49.20;;;;;;6243110;22;20016;-88
2022/06/27 09:39:07;;;;;;;2.92;2.72;;;31.80;48.50;;;;;;6237778;23;20012;-88
2022/06/27 09:41:35;;;;;;;3.03;2.70;;;31.80;48.80;;;;;;6238369;22;20016;-89
2022/06/27 09:44:06;;;;;;;2.50;2.30;;;31.80;48.80;;;;;;6240288;22;20019;-90
2022/06/27 09:46:38;;;;;;;5.97;2.40;;;32.00;49.40;;;;;;6239541;22;20008;-88
2022/06/27 09:49:12;;;;;;;6.20;3.15;;;32.10;48.60;;;;;;6239943;22;20016;-88
2022/06/27 09:51:39;;;;;;;3.10;2.80;;;32.10;47.80;;;;;;6239472;22;20506;-87
2022/06/27 09:54:16;;;;;;;3.55;2.88;;;32.10;47.90;;;;;;6239675;22;20016;-89
2022/06/27 09:56:45;;;;;;;3.72;2.80;;;32.00;48.20;;;;;;6239647;23;20008;-87
2022/06/27 09:59:12;;;;;;;3.20;2.90;;;32.20;47.40;;;;;;6239096;22;20012;-87
2022/06/27 10:01:43;;;;;;;3.22;2.90;;;32.40;47.90;;;;;;6238713;22;20028;-87
2022/06/27 10:04:11;;;;;;;3.10;2.80;;;32.60;46.80;;;;;;6237832;22;20016;-87
2022/06/27 10:06:39;;;;;;;2.75;2.55;;;32.50;46.80;;;;;;6237339;23;20012;-87
2022/06/27 10:09:16;;;;;;;2.90;2.70;;;32.50;47.60;;;;;;6238004;22;20015;-87
2022/06/27 10:11:45;;;;;;;3.30;2.95;;;32.50;47.80;;;;;;6236231;23;20506;-87
2022/06/27 10:14:29;;;;;;;5.72;2.78;;;32.60;48.10;;;;;;6249628;22;20008;-89
2022/06/27 10:16:59;;;;;;;4.50;2.30;;;32.70;47.30;;;;;;6239329;23;20012;-86
2022/06/27 10:19:27;;;;;;;2.10;1.90;;;32.70;45.20;;;;;;6238452;22;20811;-86
2022/06/27 10:21:54;;;;;;;3.72;2.10;;;32.70;44.80;;;;;;6240753;22;20016;-87
2022/06/27 10:24:26;;;;;;;2.83;2.30;;;32.60;45.20;;;;;;6238727;22;20094;-86
2022/06/27 10:26:57;;;;;;;2.17;1.90;;;32.60;45.70;;;;;;6243894;23;20015;-89
2022/06/27 10:29:34;;;;;;;4.22;2.20;;;32.60;45.10;;;;;;6243590;22;20012;-89
2022/06/27 10:32:05;;;;;;;3.83;3.47;;;32.70;44.80;;;;;;6243787;23;20008;-91
2022/06/27 10:34:40;;;;;;;2.75;2.55;;;32.90;44.60;;;;;;6245397;22;20082;-92
2022/06/27 10:37:24;;;;;;;2.30;2.10;;;33.00;44.40;;;;;;6243585;23;20083;-90
2022/06/27 10:40:19;;;;;;;3.95;2.15;;;33.00;44.30;;;;;;6211732;22;20011;-91
2022/06/27 10:42:50;;;;;;;1.95;1.80;;;33.20;43.40;;;;;;6243088;23;20016;-88
2022/06/27 10:45:28;;;;;;;2.30;1.80;;;33.30;43.50;;;;;;6243545;22;20012;-89
2022/06/27 10:48:01;;;;;;;2.58;1.90;;;33.20;41.90;;;;;;6243558;23;20032;-90
2022/06/27 10:50:40;;;;;;;6.85;2.10;;;33.10;41.60;;;;;;6244855;22;20004;-89
2022/06/27 10:53:18;;;;;;;3.08;1.90;;;33.10;42.00;;;;;;6253002;22;20451;-88
2022/06/27 10:55:45;;;;;;;1.98;1.70;;;33.10;41.30;;;;;;6244268;23;20016;-92
2022/06/27 10:58:28;;;;;;;1.98;1.58;;;33.10;41.50;;;;;;6243066;23;20016;-89
2022/06/27 11:01:15;;;;;;;2.08;1.60;;;33.00;41.70;;;;;;6242597;23;20022;-88
2022/06/27 11:03:41;;;;;;;1.60;1.50;;;33.10;41.80;;;;;;6244305;22;20008;-91
2022/06/27 11:06:10;;;;;;;2.50;1.70;;;33.00;41.30;;;;;;6243718;22;20004;-90
2022/06/27 11:08:41;;;;;;;3.78;1.80;;;33.10;41.90;;;;;;6244063;22;20733;-88
2022/06/27 11:11:07;;;;;;;1.80;1.70;;;33.20;42.20;;;;;;6244303;22;20079;-89
2022/06/27 11:13:40;;;;;;;1.90;1.80;;;33.30;41.30;;;;;;6243171;23;20004;-92
2022/06/27 11:16:08;;;;;;;2.20;1.70;;;33.40;40.60;;;;;;6241830;23;20008;-87
2022/06/27 11:18:54;;;;;;;2.22;2.03;;;33.30;40.90;;;;;;6242378;22;20062;-88
2022/06/27 11:21:28;;;;;;;1.88;1.63;;;33.50;41.00;;;;;;6240431;22;20012;-88
2022/06/27 11:24:00;;;;;;;3.00;1.90;;;33.60;41.10;;;;;;6237768;23;20012;-89
2022/06/27 11:26:30;;;;;;;1.90;1.80;;;33.70;41.60;;;;;;6250143;22;20004;-88
2022/06/27 11:32:02;;;;;;;4.95;1.95;;;33.90;42.10;;;;;;6238573;23;20107;-87
2022/06/27 11:34:33;;;;;;;2.38;1.80;;;33.90;41.00;;;;;;6249354;22;20035;-89
2022/06/27 11:37:11;;;;;;;1.98;1.80;;;33.70;40.90;;;;;;6239889;22;20012;-90
2022/06/27 11:40:07;;;;;;;1.90;1.80;;;33.70;41.30;;;;;;6241112;22;20270;-91
2022/06/27 11:43:43;;;;;;;2.10;1.98;;;33.90;41.20;;;;;;6238250;23;20012;-90
2022/06/27 11:45:57;;;;;;;2.65;1.85;;;34.00;40.60;;;;;;6232568;22;20020;-88
2022/06/27 11:48:30;;;;;;;2.30;2.00;;;34.10;40.60;;;;;;6239310;22;20511;-87
2022/06/27 11:50:56;;;;;;;3.03;1.98;;;34.20;40.60;;;;;;6212037;23;20014;-86
2022/06/27 11:53:22;;;;;;;1.90;1.65;;;34.30;40.10;;;;;;6238363;22;20043;-88
2022/06/27 11:55:48;;;;;;;5.13;1.70;;;34.30;39.40;;;;;;6239859;22;20091;-92
2022/06/27 11:58:20;;;;;;;2.03;1.60;;;34.10;39.90;;;;;;6238599;22;20012;-88
2022/06/27 12:00:46;;;;;;;2.03;1.65;;;34.10;40.00;;;;;;6238399;22;20015;-89
2022/06/27 12:03:15;;;;;;;3.22;2.08;;;34.00;40.10;;;;;;6237934;22;20003;-87
2022/06/27 12:05:51;;;;;;;1.98;1.70;;;33.80;41.10;;;;;;6253052;22;20012;-92
2022/06/27 12:08:21;;;;;;;3.00;2.28;;;33.70;41.60;;;;;;6242099;23;20016;-93
2022/06/27 12:13:38;;;;;;;2.00;1.80;;;34.00;40.40;;;;;;6243888;23;20015;-92
2022/06/27 12:16:09;;;;;;;3.78;2.13;;;34.10;41.10;;;;;;6242452;23;20004;-91
2022/06/27 12:18:51;;;;;;;3.22;1.88;;;34.10;41.00;;;;;;6241765;23;20004;-92
2022/06/27 12:21:24;;;;;;;3.38;2.03;;;34.10;40.60;;;;;;6242056;23;20064;-89
2022/06/27 12:23:50;;;;;;;2.10;2.00;;;34.10;40.80;;;;;;6242733;22;20344;-91
2022/06/27 12:26:16;;;;;;;2.05;1.95;;;33.90;40.70;;;;;;6240703;23;20008;-91
2022/06/27 12:28:52;;;;;;;2.83;2.03;;;34.00;41.20;;;;;;6243499;23;20020;-90
2022/06/27 12:31:18;;;;;;;2.35;1.85;;;34.00;41.00;;;;;;6241962;23;20004;-92
2022/06/27 12:33:45;;;;;;;1.85;1.75;;;34.10;40.60;;;;;;6244064;22;20077;-92
2022/06/27 12:36:16;;;;;;;2.13;2.03;;;34.10;40.60;;;;;;6242918;23;20023;-91
2022/06/27 12:38:42;;;;;;;2.97;2.05;;;34.10;40.60;;;;;;6244227;22;20005;-89
2022/06/27 12:41:15;;;;;;;4.00;2.28;;;34.20;40.50;;;;;;6242725;23;20019;-92
2022/06/27 12:43:50;;;;;;;2.80;1.80;;;34.20;41.00;;;;;;6241682;23;20097;-90
2022/06/27 12:46:20;;;;;;;2.15;1.70;;;34.30;40.60;;;;;;6241442;23;20007;-92
2022/06/27 12:48:47;;;;;;;2.45;1.73;;;34.40;40.00;;;;;;6215240;23;20032;-94
2022/06/27 12:51:13;;;;;;;2.92;2.00;;;34.40;40.00;;;;;;6243425;22;20009;-93
2022/06/27 12:53:39;;;;;;;1.98;1.75;;;34.40;39.60;;;;;;6241923;22;20016;-92
2022/06/27 12:56:07;;;;;;;2.90;1.95;;;34.40;39.50;;;;;;6240747;23;20012;-92
2022/06/27 12:58:42;;;;;;;5.20;2.00;;;34.40;39.30;;;;;;6244230;22;20001;-91
2022/06/27 13:01:11;;;;;;;2.38;1.65;;;34.20;39.30;;;;;;6243624;22;20004;-91
2022/06/27 13:03:37;;;;;;;1.65;1.55;;;34.20;39.80;;;;;;6244171;22;20031;-92
2022/06/27 13:06:03;;;;;;;3.22;1.90;;;34.20;39.90;;;;;;6244436;22;20000;-92
2022/06/27 13:08:32;;;;;;;1.73;1.63;;;34.40;40.20;;;;;;6244425;22;20008;-94
2022/06/27 13:10:58;;;;;;;2.28;1.70;;;34.50;39.20;;;;;;6240665;22;20008;-87